createdAt,value
2017-10-07T00:02:20.280Z,101026.39
2017-10-07T00:04:49.358Z,101023.86
2017-10-07T00:07:17.681Z,101012.84
2017-10-07T00:09:45.997Z,101014.84
2017-10-07T00:12:14.320Z,101022.04
2017-10-07T00:14:43.381Z,101025.73
2017-10-07T00:17:12.265Z,101026.34
2017-10-07T00:19:40.558Z,101028.81
2017-10-07T00:22:08.868Z,101024.34
2017-10-07T00:24:37.179Z,101027.06
2017-10-07T00:27:05.496Z,101040.50
2017-10-07T00:29:33.797Z,101035.27
2017-10-07T00:32:02.156Z,101036.56
2017-10-07T00:34:31.220Z,101038.00
2017-10-07T00:36:59.549Z,101039.64
2017-10-07T00:39:27.856Z,101043.17
2017-10-07T00:41:56.158Z,101041.64
2017-10-07T00:44:24.476Z,101040.45
2017-10-07T00:46:53.538Z,101039.18
2017-10-07T00:49:21.848Z,101033.98
2017-10-07T00:51:50.910Z,101035.01
2017-10-07T00:54:19.226Z,101027.88
2017-10-07T00:56:47.530Z,101026.94
2017-10-07T00:59:15.841Z,101021.86
2017-10-07T01:01:44.171Z,101020.65
2017-10-07T01:04:12.476Z,101030.73
2017-10-07T01:06:40.777Z,101025.38
2017-10-07T01:09:09.085Z,101029.28
2017-10-07T01:11:37.389Z,101030.37
2017-10-07T01:14:05.726Z,101022.20
2017-10-07T01:16:34.793Z,101019.97
2017-10-07T01:19:03.087Z,101023.61
2017-10-07T01:21:31.401Z,101027.33
2017-10-07T01:23:59.702Z,101023.84
2017-10-07T01:26:28.004Z,101017.98
2017-10-07T01:28:56.300Z,101020.06
2017-10-07T01:31:25.377Z,101018.92
2017-10-07T01:33:53.737Z,101022.50
2017-10-07T01:36:22.044Z,101025.89
2017-10-07T01:38:50.341Z,101022.20
2017-10-07T01:41:19.450Z,101027.81
2017-10-07T01:43:48.544Z,101022.76
2017-10-07T01:46:16.836Z,101017.66
2017-10-07T01:48:45.144Z,101018.80
2017-10-07T01:51:13.457Z,101022.78
2017-10-07T01:53:42.537Z,101020.19
2017-10-07T01:56:10.837Z,101020.19
2017-10-07T01:58:39.904Z,101019.02
2017-10-07T02:01:08.202Z,101022.16
2017-10-07T02:03:36.540Z,101019.90
2017-10-07T02:06:04.853Z,101016.23
2017-10-07T02:08:33.969Z,101018.39
2017-10-07T02:11:02.295Z,101020.89
2017-10-07T02:13:30.594Z,101021.27
2017-10-07T02:15:58.915Z,101014.84
2017-10-07T02:18:27.212Z,101006.83
2017-10-07T02:20:55.525Z,101011.79
2017-10-07T02:23:24.589Z,101007.45
2017-10-07T02:25:52.891Z,101004.45
2017-10-07T02:28:21.182Z,101000.42
2017-10-07T02:30:50.276Z,101005.11
2017-10-07T02:33:19.342Z,101000.94
2017-10-07T02:35:48.418Z,101000.67
2017-10-07T02:38:16.730Z,100997.48
2017-10-07T02:40:45.041Z,100992.89
2017-10-07T02:43:13.371Z,100993.44
2017-10-07T02:45:41.698Z,101001.58
2017-10-07T02:48:10.050Z,101003.27
2017-10-07T02:50:39.139Z,101001.70
2017-10-07T02:53:07.463Z,101001.30
2017-10-07T02:55:35.766Z,101007.48
2017-10-07T02:58:04.115Z,101004.36
2017-10-07T03:00:32.426Z,101006.94
2017-10-07T03:03:00.745Z,101008.83
2017-10-07T03:05:29.833Z,101010.41
2017-10-07T03:07:58.893Z,101014.02
2017-10-07T03:10:27.218Z,101017.44
2017-10-07T03:12:56.294Z,101020.95
2017-10-07T03:15:24.604Z,101022.55
2017-10-07T03:17:52.911Z,101020.16
2017-10-07T03:20:21.270Z,101027.04
2017-10-07T03:22:49.570Z,101032.39
2017-10-07T03:25:17.877Z,101023.01
2017-10-07T03:27:46.207Z,101029.95
2017-10-07T03:30:14.515Z,101022.89
2017-10-07T03:32:42.853Z,101035.52
2017-10-07T03:35:11.157Z,101030.25
2017-10-07T03:37:39.469Z,101038.27
2017-10-07T03:40:08.537Z,101039.02
2017-10-07T03:42:36.892Z,101041.86
2017-10-07T03:45:05.266Z,101038.31
2017-10-07T03:47:33.572Z,101043.09
2017-10-07T03:50:01.881Z,101043.61
2017-10-07T03:52:30.945Z,101041.78
2017-10-07T03:54:59.270Z,101039.16
2017-10-07T03:57:27.577Z,101039.74
2017-10-07T03:59:55.897Z,101038.41
2017-10-07T04:02:24.203Z,101043.07
2017-10-07T04:04:52.514Z,101034.70
2017-10-07T04:07:20.809Z,101037.34
2017-10-07T04:09:49.173Z,101041.42
2017-10-07T04:12:17.474Z,101041.38
2017-10-07T04:14:45.789Z,101038.78
2017-10-07T04:17:14.101Z,101043.22
2017-10-07T04:19:42.404Z,101040.14
2017-10-07T04:22:10.733Z,101045.74
2017-10-07T04:24:39.034Z,101039.67
2017-10-07T04:27:07.353Z,101051.80
2017-10-07T04:29:36.430Z,101043.22
2017-10-07T04:32:04.742Z,101042.46
2017-10-07T04:34:33.806Z,101037.80
2017-10-07T04:37:02.129Z,101040.14
2017-10-07T04:39:30.437Z,101042.56
2017-10-07T04:41:59.537Z,101040.02
2017-10-07T04:44:27.845Z,101034.57
2017-10-07T04:46:56.154Z,101037.48
2017-10-07T04:49:24.490Z,101040.25
2017-10-07T04:51:52.868Z,101045.77
2017-10-07T04:54:21.192Z,100999.87
2017-10-07T04:56:49.493Z,101037.25
2017-10-07T04:59:17.805Z,101035.33
2017-10-07T05:01:46.123Z,101039.13
2017-10-07T05:04:14.434Z,101040.20
2017-10-07T05:06:42.752Z,101042.95
2017-10-07T05:09:11.817Z,101041.19
2017-10-07T05:11:40.142Z,101042.22
2017-10-07T05:14:08.475Z,101039.05
2017-10-07T05:16:36.800Z,101032.91
2017-10-07T05:19:05.104Z,101029.91
2017-10-07T05:21:33.414Z,101025.79
2017-10-07T05:24:01.722Z,101021.39
2017-10-07T05:26:30.095Z,101027.39
2017-10-07T05:28:59.169Z,101025.50
2017-10-07T05:31:27.473Z,101031.02
2017-10-07T05:33:55.787Z,101024.76
2017-10-07T05:36:24.129Z,101023.48
2017-10-07T05:38:52.454Z,101020.02
2017-10-07T05:41:20.841Z,101022.17
2017-10-07T05:43:49.165Z,101021.34
2017-10-07T05:46:17.460Z,101022.30
2017-10-07T05:48:45.792Z,101019.36
2017-10-07T05:51:14.101Z,101028.38
2017-10-07T05:53:42.438Z,101025.62
2017-10-07T05:56:10.791Z,101023.06
2017-10-07T05:58:39.141Z,101022.45
2017-10-07T06:01:07.450Z,101020.70
2017-10-07T06:03:35.749Z,101021.35
2017-10-07T06:06:04.057Z,101021.69
2017-10-07T06:08:33.121Z,101017.64
2017-10-07T06:11:01.433Z,101024.44
2017-10-07T06:13:29.741Z,101023.84
2017-10-07T06:15:58.082Z,101025.55
2017-10-07T06:18:27.141Z,101021.67
2017-10-07T06:20:55.465Z,101025.55
2017-10-07T06:23:23.771Z,101024.92
2017-10-07T06:25:52.101Z,101021.16
2017-10-07T06:28:21.184Z,101020.09
2017-10-07T06:30:49.477Z,101016.99
2017-10-07T06:33:18.554Z,101026.52
2017-10-07T06:35:46.856Z,101025.80
2017-10-07T06:38:15.197Z,101019.30
2017-10-07T06:40:43.508Z,101016.98
2017-10-07T06:43:11.810Z,101013.09
2017-10-07T06:45:40.120Z,101005.75
2017-10-07T06:48:08.430Z,101010.45
2017-10-07T06:50:37.511Z,101017.03
2017-10-07T06:53:05.814Z,101011.87
2017-10-07T06:55:34.118Z,101006.53
2017-10-07T06:58:02.444Z,101021.15
2017-10-07T07:00:31.536Z,101018.75
2017-10-07T07:02:59.851Z,101028.15
2017-10-07T07:05:28.191Z,101029.00
2017-10-07T07:07:56.487Z,101025.80
2017-10-07T07:10:25.585Z,101028.72
2017-10-07T07:12:54.657Z,101026.60
2017-10-07T07:15:22.958Z,101028.97
2017-10-07T07:17:52.049Z,101026.77
2017-10-07T07:20:21.139Z,101026.90
2017-10-07T07:22:50.226Z,101025.25
2017-10-07T07:25:18.525Z,101028.22
2017-10-07T07:27:47.637Z,101031.67
2017-10-07T07:30:15.931Z,101023.07
2017-10-07T07:32:44.230Z,101019.98
2017-10-07T07:35:12.542Z,101023.23
2017-10-07T07:37:41.615Z,101022.34
2017-10-07T07:40:09.926Z,101022.06
2017-10-07T07:42:38.227Z,101017.34
2017-10-07T07:45:06.537Z,101018.44
2017-10-07T07:47:34.841Z,101013.17
2017-10-07T07:50:03.918Z,101008.17
2017-10-07T07:52:32.221Z,101007.48
2017-10-07T07:55:01.294Z,101009.14
2017-10-07T07:57:29.598Z,101005.58
2017-10-07T07:59:57.922Z,101005.64
2017-10-07T08:02:26.216Z,101003.67
2017-10-07T08:04:54.669Z,100989.68
2017-10-07T08:07:22.974Z,100991.11
2017-10-07T08:09:51.274Z,100992.61
2017-10-07T08:12:20.358Z,100993.80
2017-10-07T08:14:48.673Z,100989.25
2017-10-07T08:17:16.982Z,100989.28
2017-10-07T08:19:45.281Z,100991.60
2017-10-07T08:22:13.595Z,100990.92
2017-10-07T08:24:41.901Z,100992.27
2017-10-07T08:27:10.217Z,100992.67
2017-10-07T08:29:38.518Z,100979.73
2017-10-07T08:32:07.618Z,100985.06
2017-10-07T08:34:36.689Z,100981.88
2017-10-07T08:37:04.989Z,100976.52
2017-10-07T08:39:34.062Z,100973.21
2017-10-07T08:42:02.365Z,100966.91
2017-10-07T08:44:30.670Z,100969.16
2017-10-07T08:46:58.973Z,100967.44
2017-10-07T08:49:27.299Z,100959.30
2017-10-07T08:51:55.601Z,100959.06
2017-10-07T08:54:23.939Z,100961.77
2017-10-07T08:56:53.014Z,100960.19
2017-10-07T08:59:21.325Z,100948.95
2017-10-07T09:01:49.643Z,100950.70
2017-10-07T09:04:17.945Z,100945.64
2017-10-07T09:06:47.041Z,100937.53
2017-10-07T09:09:15.358Z,100945.61
2017-10-07T09:11:43.677Z,100946.84
2017-10-07T09:14:11.994Z,100940.52
2017-10-07T09:16:41.098Z,100940.55
2017-10-07T09:19:09.409Z,100933.16
2017-10-07T09:21:37.728Z,100930.77
2017-10-07T09:24:06.113Z,100929.15
2017-10-07T09:26:35.267Z,100924.34
2017-10-07T09:29:03.586Z,100918.67
2017-10-07T09:31:31.954Z,100919.37
2017-10-07T09:34:00.273Z,100917.31
2017-10-07T09:36:28.596Z,100915.88
2017-10-07T09:38:56.965Z,100910.33
2017-10-07T09:41:26.033Z,100902.48
2017-10-07T09:43:54.337Z,100899.93
2017-10-07T09:46:22.655Z,100894.76
2017-10-07T09:48:51.734Z,100882.00
2017-10-07T09:51:20.050Z,100888.13
2017-10-07T09:53:48.349Z,100878.42
2017-10-07T09:56:16.664Z,100884.72
2017-10-07T09:58:45.793Z,100880.34
2017-10-07T10:01:14.138Z,100872.98
2017-10-07T10:03:42.447Z,100871.29
2017-10-07T10:06:10.753Z,100865.56
2017-10-07T10:08:39.069Z,100864.12
2017-10-07T10:11:07.373Z,100857.35
2017-10-07T10:13:35.698Z,100854.03
2017-10-07T10:16:04.010Z,100859.89
2017-10-07T10:18:33.128Z,100848.83
2017-10-07T10:21:01.447Z,100855.41
2017-10-07T10:23:29.797Z,100850.08
2017-10-07T10:25:58.108Z,100849.12
2017-10-07T10:28:26.408Z,100842.70
2017-10-07T10:30:54.730Z,100845.34
2017-10-07T10:33:23.040Z,100839.26
2017-10-07T10:35:51.358Z,100839.53
2017-10-07T10:38:20.421Z,100843.64
2017-10-07T10:40:48.746Z,100825.38
2017-10-07T10:43:17.062Z,100832.36
2017-10-07T10:45:45.416Z,100820.49
2017-10-07T10:48:13.723Z,100819.19
2017-10-07T10:50:42.081Z,100821.97
2017-10-07T10:53:10.402Z,100811.83
2017-10-07T10:55:38.714Z,100806.27
2017-10-07T10:58:07.028Z,100804.91
2017-10-07T11:00:35.354Z,100807.27
2017-10-07T11:03:03.694Z,100793.17
2017-10-07T11:05:32.008Z,100786.17
2017-10-07T11:08:01.122Z,100787.30
2017-10-07T11:10:29.443Z,100779.62
2017-10-07T11:12:57.745Z,100775.08
2017-10-07T11:15:26.075Z,100774.03
2017-10-07T11:17:54.387Z,100770.98
2017-10-07T11:20:22.715Z,100762.58
2017-10-07T11:22:51.015Z,100763.39
2017-10-07T11:25:19.336Z,100760.49
2017-10-07T11:27:48.401Z,100761.05
2017-10-07T11:30:16.723Z,100751.72
2017-10-07T11:32:45.031Z,100742.09
2017-10-07T11:35:14.126Z,100742.73
2017-10-07T11:37:42.447Z,100738.17
2017-10-07T11:40:10.790Z,100732.28
2017-10-07T11:42:39.094Z,100728.75
2017-10-07T11:45:07.403Z,100720.97
2017-10-07T11:47:36.494Z,100716.70
2017-10-07T11:50:05.558Z,100708.91
2017-10-07T11:52:33.887Z,100704.95
2017-10-07T11:55:02.222Z,100702.22
2017-10-07T11:57:30.588Z,100706.20
2017-10-07T11:59:59.658Z,100692.05
2017-10-07T12:02:27.989Z,100692.22
2017-10-07T12:04:57.057Z,100686.14
2017-10-07T12:07:25.362Z,100682.66
2017-10-07T12:09:54.441Z,100679.33
2017-10-07T12:12:22.755Z,100688.41
2017-10-07T12:14:51.085Z,100673.72
2017-10-07T12:17:19.397Z,100674.25
2017-10-07T12:19:48.485Z,100670.43
2017-10-07T12:22:17.558Z,100666.38
2017-10-07T12:24:45.892Z,100658.00
2017-10-07T12:27:14.202Z,100654.70
2017-10-07T12:29:42.509Z,100654.56
2017-10-07T12:32:11.590Z,100636.06
2017-10-07T12:34:39.904Z,100633.47
2017-10-07T12:37:08.230Z,100625.75
2017-10-07T12:39:36.546Z,100627.11
2017-10-07T12:42:05.621Z,100620.58
2017-10-07T12:44:33.925Z,100616.05
2017-10-07T12:47:03.002Z,100604.17
2017-10-07T12:49:32.066Z,100606.68
2017-10-07T12:52:00.397Z,100598.41
2017-10-07T12:54:28.701Z,100603.36
2017-10-07T12:56:57.002Z,100591.88
2017-10-07T12:59:25.318Z,100578.06
2017-10-07T13:01:54.435Z,100577.16
2017-10-07T13:04:22.750Z,100567.97
2017-10-07T13:06:51.054Z,100562.75
2017-10-07T13:09:20.137Z,100561.56
2017-10-07T13:11:48.449Z,100546.89
2017-10-07T13:14:16.785Z,100544.92
2017-10-07T13:16:45.082Z,100537.64
2017-10-07T13:19:14.145Z,100527.56
2017-10-07T13:21:42.457Z,100523.61
2017-10-07T13:24:11.521Z,100521.17
2017-10-07T13:26:39.834Z,100506.23
2017-10-07T13:29:08.907Z,100505.80
2017-10-07T13:31:37.232Z,100504.75
2017-10-07T13:34:05.553Z,100503.25
2017-10-07T13:36:33.889Z,100490.20
2017-10-07T13:39:02.186Z,100495.33
2017-10-07T13:41:30.502Z,100478.55
2017-10-07T13:43:58.825Z,100475.88
2017-10-07T13:46:27.135Z,100474.95
2017-10-07T13:48:55.453Z,100470.78
2017-10-07T13:51:24.517Z,100461.50
2017-10-07T13:53:52.837Z,100458.59
2017-10-07T13:56:21.163Z,100454.24
2017-10-07T13:58:49.510Z,100451.61
2017-10-07T14:01:17.808Z,100444.34
2017-10-07T14:03:46.118Z,100434.19
2017-10-07T14:06:14.429Z,100429.98
2017-10-07T14:08:42.729Z,100427.78
2017-10-07T14:11:11.046Z,100426.62
2017-10-07T14:13:39.341Z,100427.84
2017-10-07T14:16:08.413Z,100423.89
2017-10-07T14:18:36.721Z,100418.50
2017-10-07T14:21:05.254Z,100405.16
2017-10-07T14:23:33.549Z,100404.25
2017-10-07T14:26:01.861Z,100403.97
2017-10-07T14:28:30.173Z,100396.41
2017-10-07T14:30:58.478Z,100395.08
2017-10-07T14:33:26.786Z,100392.95
2017-10-07T14:35:55.845Z,100377.22
2017-10-07T14:38:24.158Z,100375.13
2017-10-07T14:40:53.220Z,100384.84
2017-10-07T14:43:21.541Z,100371.36
2017-10-07T14:45:49.850Z,100364.46
2017-10-07T14:48:18.182Z,100364.56
2017-10-07T14:50:47.257Z,100354.45
2017-10-07T14:53:15.614Z,100353.31
2017-10-07T14:55:43.933Z,100351.78
2017-10-07T14:58:13.054Z,100352.81
2017-10-07T15:00:41.374Z,100350.91
2017-10-07T15:03:09.681Z,100339.02
2017-10-07T15:05:38.762Z,100339.06
2017-10-07T15:08:07.070Z,100330.48
2017-10-07T15:10:35.406Z,100331.66
2017-10-07T15:13:03.720Z,100323.45
2017-10-07T15:15:32.021Z,100325.64
2017-10-07T15:18:00.329Z,100322.83
2017-10-07T15:20:28.637Z,100315.17
2017-10-07T15:22:56.953Z,100320.02
2017-10-07T15:25:25.253Z,100299.26
2017-10-07T15:27:53.563Z,100299.84
2017-10-07T15:30:22.629Z,100301.29
2017-10-07T15:32:50.973Z,100300.70
2017-10-07T15:35:19.282Z,100293.25
2017-10-07T15:37:48.364Z,100290.12
2017-10-07T15:40:16.669Z,100285.16
2017-10-07T15:42:44.964Z,100273.34
2017-10-07T15:45:14.046Z,100276.78
2017-10-07T15:47:42.354Z,100269.84
2017-10-07T15:50:10.673Z,100266.37
2017-10-07T15:52:38.990Z,100261.93
2017-10-07T15:55:08.102Z,100269.59
2017-10-07T15:57:36.398Z,100252.95
2017-10-07T16:00:04.703Z,100250.60
2017-10-07T16:02:33.013Z,100254.55
2017-10-07T16:05:02.830Z,100244.50
2017-10-07T16:07:31.910Z,100244.46
2017-10-07T16:10:00.214Z,100232.38
2017-10-07T16:12:28.530Z,100229.64
2017-10-07T16:14:56.833Z,100224.08
2017-10-07T16:17:25.172Z,100214.23
2017-10-07T16:19:53.469Z,100220.72
2017-10-07T16:22:21.781Z,100215.16
2017-10-07T16:24:50.858Z,100215.56
2017-10-07T16:27:19.161Z,100220.27
2017-10-07T16:29:48.246Z,100212.93
2017-10-07T16:32:16.551Z,100215.60
2017-10-07T16:34:44.865Z,100208.58
2017-10-07T16:37:13.177Z,100208.30
2017-10-07T16:39:41.505Z,100209.80
2017-10-07T16:42:09.831Z,100212.30
2017-10-07T16:44:38.134Z,100198.88
2017-10-07T16:47:06.454Z,100204.37
2017-10-07T16:49:34.762Z,100200.88
2017-10-07T16:52:03.075Z,100201.16
2017-10-07T16:54:31.381Z,100196.39
2017-10-07T16:56:59.721Z,100199.06
2017-10-07T16:59:28.042Z,100200.78
2017-10-07T17:01:56.382Z,100197.84
2017-10-07T17:04:24.705Z,100186.91
2017-10-07T17:06:53.049Z,100169.44
2017-10-07T17:09:21.362Z,100173.28
2017-10-07T17:11:49.669Z,100170.70
2017-10-07T17:14:18.743Z,100170.88
2017-10-07T17:16:47.045Z,100170.97
2017-10-07T17:19:16.121Z,100163.42
2017-10-07T17:21:44.434Z,100162.73
2017-10-07T17:24:12.784Z,100168.21
2017-10-07T17:26:41.120Z,100154.95
2017-10-07T17:29:09.417Z,100155.72
2017-10-07T17:31:37.730Z,100158.25
2017-10-07T17:34:06.801Z,100146.70
2017-10-07T17:36:35.123Z,100139.91
2017-10-07T17:39:03.441Z,100129.13
2017-10-07T17:41:31.753Z,100115.09
2017-10-07T17:44:00.826Z,100111.64
2017-10-07T17:46:29.162Z,100109.10
2017-10-07T17:48:57.466Z,100107.02
2017-10-07T17:51:25.782Z,100119.73
2017-10-07T17:53:54.868Z,100109.18
2017-10-07T17:56:23.946Z,100101.94
2017-10-07T17:58:52.254Z,100095.56
2017-10-07T18:01:21.321Z,100090.34
2017-10-07T18:03:49.643Z,100096.33
2017-10-07T18:06:17.972Z,100089.53
2017-10-07T18:08:46.316Z,100096.88
2017-10-07T18:11:14.625Z,100084.41
2017-10-07T18:13:42.925Z,100093.83
2017-10-07T18:16:11.313Z,100087.36
2017-10-07T18:18:40.382Z,100073.41
2017-10-07T18:21:08.698Z,100078.70
2017-10-07T18:23:37.014Z,100084.77
2017-10-07T18:26:05.325Z,100084.97
2017-10-07T18:28:33.621Z,100090.66
2017-10-07T18:31:02.725Z,100086.08
2017-10-07T18:33:31.030Z,100089.55
2017-10-07T18:35:59.330Z,100091.33
2017-10-07T18:38:27.638Z,100089.46
2017-10-07T18:40:56.721Z,100088.64
2017-10-07T18:43:25.039Z,100081.45
2017-10-07T18:45:53.344Z,100087.03
2017-10-07T18:48:21.657Z,100085.25
2017-10-07T18:50:49.961Z,100081.09
2017-10-07T18:53:19.841Z,100088.14
2017-10-07T18:55:48.184Z,100087.33
2017-10-07T18:58:16.513Z,100078.48
2017-10-07T19:00:45.582Z,100067.30
2017-10-07T19:03:13.894Z,100075.91
2017-10-07T19:05:42.977Z,100062.99
2017-10-07T19:08:12.045Z,100062.95
2017-10-07T19:10:40.352Z,100058.09
2017-10-07T19:13:09.418Z,100056.33
2017-10-07T19:15:37.736Z,100055.96
2017-10-07T19:18:06.045Z,100050.08
2017-10-07T19:20:34.378Z,100050.22
2017-10-07T19:23:03.441Z,100050.01
2017-10-07T19:25:31.751Z,100045.19
2017-10-07T19:28:00.829Z,100050.05
2017-10-07T19:30:29.133Z,100045.73
2017-10-07T19:32:58.214Z,100040.53
2017-10-07T19:35:27.277Z,100039.72
2017-10-07T19:37:55.581Z,100041.72
2017-10-07T19:40:23.890Z,100034.45
2017-10-07T19:42:52.254Z,100037.84
2017-10-07T19:45:21.325Z,100030.14
2017-10-07T19:47:49.748Z,100034.48
2017-10-07T19:50:18.055Z,100035.20
2017-10-07T19:52:46.367Z,100028.20
2017-10-07T19:55:15.448Z,100023.13
2017-10-07T19:57:43.745Z,100019.09
2017-10-07T20:00:12.833Z,100021.02
2017-10-07T20:02:41.137Z,100020.75
2017-10-07T20:05:09.454Z,100013.85
2017-10-07T20:07:37.772Z,100016.27
2017-10-07T20:10:06.853Z,100015.99
2017-10-07T20:12:35.163Z,100014.45
2017-10-07T20:15:03.493Z,100013.47
2017-10-07T20:17:31.795Z,100006.75
2017-10-07T20:20:00.876Z,100009.87
2017-10-07T20:22:29.200Z,100009.16
2017-10-07T20:24:57.502Z,100006.98
2017-10-07T20:27:25.810Z,100003.01
2017-10-07T20:29:54.122Z,100004.37
2017-10-07T20:32:22.434Z,100000.97
2017-10-07T20:34:50.737Z,100001.88
2017-10-07T20:37:19.090Z,100004.06
2017-10-07T20:39:47.401Z,99988.36
2017-10-07T20:42:15.715Z,100003.24
2017-10-07T20:44:44.024Z,99998.08
2017-10-07T20:47:12.898Z,99997.50
2017-10-07T20:49:41.214Z,99999.60
2017-10-07T20:52:09.514Z,99998.01
2017-10-07T20:54:38.606Z,99992.47
2017-10-07T20:57:07.664Z,99988.73
2017-10-07T20:59:35.993Z,99983.20
2017-10-07T21:02:05.053Z,99982.65
2017-10-07T21:04:33.362Z,99977.69
2017-10-07T21:07:01.672Z,99979.77
2017-10-07T21:09:29.971Z,99979.89
2017-10-07T21:11:58.293Z,99974.56
2017-10-07T21:14:27.349Z,99981.35
2017-10-07T21:16:55.661Z,99976.77
2017-10-07T21:19:24.773Z,99978.00
2017-10-07T21:21:53.111Z,99977.01
2017-10-07T21:24:21.441Z,99978.64
2017-10-07T21:26:49.825Z,99981.80
2017-10-07T21:29:18.134Z,99979.86
2017-10-07T21:31:46.442Z,99980.81
2017-10-07T21:34:15.517Z,99978.05
2017-10-07T21:36:43.815Z,99954.45
2017-10-07T21:39:12.884Z,99965.33
2017-10-07T21:41:41.192Z,99963.86
2017-10-07T21:44:10.290Z,99966.95
2017-10-07T21:46:39.358Z,99961.17
2017-10-07T21:49:07.658Z,99959.66
2017-10-07T21:51:36.750Z,99953.13
2017-10-07T21:54:05.813Z,99954.90
2017-10-07T21:56:34.243Z,99947.46
2017-10-07T21:59:02.546Z,99944.91
2017-10-07T22:01:30.872Z,99953.47
2017-10-07T22:03:59.942Z,99946.98
2017-10-07T22:06:28.281Z,99947.16
2017-10-07T22:08:56.580Z,99944.95
2017-10-07T22:11:24.898Z,99943.08
2017-10-07T22:13:53.974Z,99935.98
2017-10-07T22:16:22.269Z,99938.11
2017-10-07T22:18:51.365Z,99937.73
2017-10-07T22:21:20.446Z,99935.02
2017-10-07T22:23:48.774Z,99929.21
2017-10-07T22:26:17.073Z,99936.08
2017-10-07T22:28:45.391Z,99926.73
2017-10-07T22:31:14.462Z,99933.48
2017-10-07T22:33:42.798Z,99936.09
2017-10-07T22:36:11.119Z,99936.58
2017-10-07T22:38:39.423Z,99932.94
2017-10-07T22:41:08.490Z,99933.18
2017-10-07T22:43:36.804Z,99929.00
2017-10-07T22:46:05.123Z,99930.63
2017-10-07T22:48:33.433Z,99933.24
2017-10-07T22:51:01.790Z,99929.84
2017-10-07T22:53:30.093Z,99936.23
2017-10-07T22:55:58.426Z,99934.60
2017-10-07T22:58:26.725Z,99929.63
2017-10-07T23:00:55.073Z,99939.12
2017-10-07T23:03:23.377Z,99935.48
2017-10-07T23:05:51.669Z,99941.56
2017-10-07T23:08:19.993Z,99941.02
2017-10-07T23:10:48.290Z,99939.99
2017-10-07T23:13:16.616Z,99942.03
2017-10-07T23:15:44.922Z,99936.19
2017-10-07T23:18:13.270Z,99935.78
2017-10-07T23:20:41.579Z,99928.14
2017-10-07T23:23:09.889Z,99929.01
2017-10-07T23:25:38.204Z,99933.36
2017-10-07T23:28:07.266Z,99937.55
2017-10-07T23:30:35.576Z,99944.64
2017-10-07T23:33:04.657Z,99940.02
2017-10-07T23:35:32.993Z,99935.20
2017-10-07T23:38:01.314Z,99943.28
2017-10-07T23:40:29.649Z,99938.98
2017-10-07T23:42:57.942Z,99935.73
2017-10-07T23:45:26.245Z,99943.48
2017-10-07T23:47:54.568Z,99946.03
2017-10-07T23:50:22.861Z,99941.55
2017-10-07T23:52:51.170Z,99942.97
2017-10-07T23:55:19.473Z,99947.89
2017-10-07T23:57:48.550Z,99947.48
